sensor_id;sensor_type;location;lat;lon;timestamp;temperature;humidity
15239;DHT22;7722;53.274;9.500;2023-01-30T00:01:54;3.10;99.90
15239;DHT22;7722;53.274;9.500;2023-01-30T00:04:21;3.20;99.90
15239;DHT22;7722;53.274;9.500;2023-01-30T00:06:50;3.20;99.90
15239;DHT22;7722;53.274;9.500;2023-01-30T00:09:18;3.10;99.90
15239;DHT22;7722;53.274;9.500;2023-01-30T00:11:51;3.20;99.90
15239;DHT22;7722;53.274;9.500;2023-01-30T00:14:19;3.20;99.90
15239;DHT22;7722;53.274;9.500;2023-01-30T00:16:46;3.30;99.90
15239;DHT22;7722;53.274;9.500;2023-01-30T00:19:15;3.30;99.90
15239;DHT22;7722;53.274;9.500;2023-01-30T00:21:42;3.30;99.90
15239;DHT22;7722;53.274;9.500;2023-01-30T00:24:09;3.30;99.90
15239;DHT22;7722;53.274;9.500;2023-01-30T00:26:36;3.30;99.90
15239;DHT22;7722;53.274;9.500;2023-01-30T00:29:03;3.30;99.90
15239;DHT22;7722;53.274;9.500;2023-01-30T00:31:30;3.30;99.90
15239;DHT22;7722;53.274;9.500;2023-01-30T00:33:57;3.40;99.90
15239;DHT22;7722;53.274;9.500;2023-01-30T00:36:25;3.30;99.90
15239;DHT22;7722;53.274;9.500;2023-01-30T00:38:55;3.40;99.90
15239;DHT22;7722;53.274;9.500;2023-01-30T00:41:22;3.40;99.90
15239;DHT22;7722;53.274;9.500;2023-01-30T00:44:09;3.50;99.90
15239;DHT22;7722;53.274;9.500;2023-01-30T00:46:53;3.40;99.90
15239;DHT22;7722;53.274;9.500;2023-01-30T00:49:34;3.40;99.90
15239;DHT22;7722;53.274;9.500;2023-01-30T00:52:03;3.40;99.90
15239;DHT22;7722;53.274;9.500;2023-01-30T00:54:31;3.60;99.90
15239;DHT22;7722;53.274;9.500;2023-01-30T00:56:58;3.50;99.90
15239;DHT22;7722;53.274;9.500;2023-01-30T00:59:25;3.60;99.90
15239;DHT22;7722;53.274;9.500;2023-01-30T01:01:52;3.60;99.90
15239;DHT22;7722;53.274;9.500;2023-01-30T01:04:19;3.70;99.90
15239;DHT22;7722;53.274;9.500;2023-01-30T01:06:46;3.60;99.90
15239;DHT22;7722;53.274;9.500;2023-01-30T01:09:14;3.60;99.90
15239;DHT22;7722;53.274;9.500;2023-01-30T01:11:42;3.70;99.90
15239;DHT22;7722;53.274;9.500;2023-01-30T01:14:09;3.70;99.90
15239;DHT22;7722;53.274;9.500;2023-01-30T01:16:36;3.70;99.90
15239;DHT22;7722;53.274;9.500;2023-01-30T01:19:03;3.70;99.90
15239;DHT22;7722;53.274;9.500;2023-01-30T01:21:30;3.70;99.90
15239;DHT22;7722;53.274;9.500;2023-01-30T01:23:58;3.80;99.90
15239;DHT22;7722;53.274;9.500;2023-01-30T01:26:27;3.80;99.90
15239;DHT22;7722;53.274;9.500;2023-01-30T01:28:54;3.90;99.90
15239;DHT22;7722;53.274;9.500;2023-01-30T01:31:21;4.00;99.90
15239;DHT22;7722;53.274;9.500;2023-01-30T01:33:50;4.00;99.90
15239;DHT22;7722;53.274;9.500;2023-01-30T01:36:17;4.00;99.90
15239;DHT22;7722;53.274;9.500;2023-01-30T01:38:44;4.00;99.90
15239;DHT22;7722;53.274;9.500;2023-01-30T01:41:12;4.10;99.90
15239;DHT22;7722;53.274;9.500;2023-01-30T01:44:02;4.10;99.90
15239;DHT22;7722;53.274;9.500;2023-01-30T01:46:33;4.20;99.90
15239;DHT22;7722;53.274;9.500;2023-01-30T01:49:03;4.10;99.90
15239;DHT22;7722;53.274;9.500;2023-01-30T01:51:33;4.20;99.90
15239;DHT22;7722;53.274;9.500;2023-01-30T01:54:02;4.30;99.90
15239;DHT22;7722;53.274;9.500;2023-01-30T01:56:33;4.30;99.90
15239;DHT22;7722;53.274;9.500;2023-01-30T01:59:07;4.20;99.90
15239;DHT22;7722;53.274;9.500;2023-01-30T02:01:35;4.30;99.90
15239;DHT22;7722;53.274;9.500;2023-01-30T02:04:03;4.30;99.90
15239;DHT22;7722;53.274;9.500;2023-01-30T02:06:35;4.40;99.90
15239;DHT22;7722;53.274;9.500;2023-01-30T02:09:06;4.40;99.90
15239;DHT22;7722;53.274;9.500;2023-01-30T02:11:38;4.40;99.90
15239;DHT22;7722;53.274;9.500;2023-01-30T02:14:10;4.40;99.90
15239;DHT22;7722;53.274;9.500;2023-01-30T02:16:38;4.40;99.90
15239;DHT22;7722;53.274;9.500;2023-01-30T02:19:09;4.50;99.90
15239;DHT22;7722;53.274;9.500;2023-01-30T02:22:14;4.50;99.90
15239;DHT22;7722;53.274;9.500;2023-01-30T02:24:54;4.40;99.90
15239;DHT22;7722;53.274;9.500;2023-01-30T02:31:00;4.60;99.90
15239;DHT22;7722;53.274;9.500;2023-01-30T02:33:36;4.50;99.90
15239;DHT22;7722;53.274;9.500;2023-01-30T02:36:12;4.60;99.90
15239;DHT22;7722;53.274;9.500;2023-01-30T02:38:47;4.50;99.90
15239;DHT22;7722;53.274;9.500;2023-01-30T02:41:22;4.60;99.90
15239;DHT22;7722;53.274;9.500;2023-01-30T02:44:00;4.50;99.90
15239;DHT22;7722;53.274;9.500;2023-01-30T02:46:37;4.60;99.90
15239;DHT22;7722;53.274;9.500;2023-01-30T02:49:11;4.70;99.90
15239;DHT22;7722;53.274;9.500;2023-01-30T02:51:40;4.60;99.90
15239;DHT22;7722;53.274;9.500;2023-01-30T02:54:10;4.70;99.90
15239;DHT22;7722;53.274;9.500;2023-01-30T02:56:45;4.80;99.90
15239;DHT22;7722;53.274;9.500;2023-01-30T02:59:17;4.80;99.90
15239;DHT22;7722;53.274;9.500;2023-01-30T03:05:01;4.90;99.90
15239;DHT22;7722;53.274;9.500;2023-01-30T03:07:37;4.80;99.90
15239;DHT22;7722;53.274;9.500;2023-01-30T03:10:18;4.90;99.90
15239;DHT22;7722;53.274;9.500;2023-01-30T03:12:52;4.90;99.90
15239;DHT22;7722;53.274;9.500;2023-01-30T03:15:24;5.00;99.90
15239;DHT22;7722;53.274;9.500;2023-01-30T03:17:55;5.00;99.90
15239;DHT22;7722;53.274;9.500;2023-01-30T03:20:23;4.90;99.90
15239;DHT22;7722;53.274;9.500;2023-01-30T03:22:50;4.90;99.90
15239;DHT22;7722;53.274;9.500;2023-01-30T03:25:18;5.00;99.90
15239;DHT22;7722;53.274;9.500;2023-01-30T03:27:47;5.10;99.90
15239;DHT22;7722;53.274;9.500;2023-01-30T03:30:16;5.00;99.90
15239;DHT22;7722;53.274;9.500;2023-01-30T03:32:43;5.10;99.90
15239;DHT22;7722;53.274;9.500;2023-01-30T03:35:11;5.10;99.90
15239;DHT22;7722;53.274;9.500;2023-01-30T03:37:39;5.10;99.90
15239;DHT22;7722;53.274;9.500;2023-01-30T03:40:08;5.10;99.90
15239;DHT22;7722;53.274;9.500;2023-01-30T03:42:35;5.30;99.90
15239;DHT22;7722;53.274;9.500;2023-01-30T03:45:02;5.20;99.90
15239;DHT22;7722;53.274;9.500;2023-01-30T03:47:29;5.30;99.90
15239;DHT22;7722;53.274;9.500;2023-01-30T03:49:56;5.20;99.90
15239;DHT22;7722;53.274;9.500;2023-01-30T03:52:25;5.30;99.90
15239;DHT22;7722;53.274;9.500;2023-01-30T03:54:52;5.20;99.90
15239;DHT22;7722;53.274;9.500;2023-01-30T03:57:19;5.30;99.90
15239;DHT22;7722;53.274;9.500;2023-01-30T03:59:46;5.30;99.90
15239;DHT22;7722;53.274;9.500;2023-01-30T04:02:13;5.20;99.90
15239;DHT22;7722;53.274;9.500;2023-01-30T04:04:40;5.20;99.90
15239;DHT22;7722;53.274;9.500;2023-01-30T04:07:07;5.30;99.90
15239;DHT22;7722;53.274;9.500;2023-01-30T04:09:35;5.20;99.90
15239;DHT22;7722;53.274;9.500;2023-01-30T04:12:02;5.30;99.90
15239;DHT22;7722;53.274;9.500;2023-01-30T04:14:29;5.20;99.90
15239;DHT22;7722;53.274;9.500;2023-01-30T04:16:56;5.20;99.90
15239;DHT22;7722;53.274;9.500;2023-01-30T04:19:23;5.30;99.90
15239;DHT22;7722;53.274;9.500;2023-01-30T04:21:50;5.30;99.90
15239;DHT22;7722;53.274;9.500;2023-01-30T04:24:17;5.40;99.90
15239;DHT22;7722;53.274;9.500;2023-01-30T04:26:46;5.40;99.90
15239;DHT22;7722;53.274;9.500;2023-01-30T04:29:13;5.30;99.90
15239;DHT22;7722;53.274;9.500;2023-01-30T04:31:40;5.40;99.90
15239;DHT22;7722;53.274;9.500;2023-01-30T04:34:07;5.40;99.90
15239;DHT22;7722;53.274;9.500;2023-01-30T04:36:34;5.30;99.90
15239;DHT22;7722;53.274;9.500;2023-01-30T04:39:01;5.50;99.90
15239;DHT22;7722;53.274;9.500;2023-01-30T04:41:28;5.40;99.90
15239;DHT22;7722;53.274;9.500;2023-01-30T04:43:57;5.40;99.90
15239;DHT22;7722;53.274;9.500;2023-01-30T04:46:24;5.40;99.90
15239;DHT22;7722;53.274;9.500;2023-01-30T04:48:51;5.50;99.90
15239;DHT22;7722;53.274;9.500;2023-01-30T04:51:18;5.40;99.90
15239;DHT22;7722;53.274;9.500;2023-01-30T04:53:45;5.40;99.90
15239;DHT22;7722;53.274;9.500;2023-01-30T04:56:12;5.50;99.90
15239;DHT22;7722;53.274;9.500;2023-01-30T04:58:40;5.30;99.90
15239;DHT22;7722;53.274;9.500;2023-01-30T05:01:21;5.20;99.90
15239;DHT22;7722;53.274;9.500;2023-01-30T05:03:49;5.20;99.90
15239;DHT22;7722;53.274;9.500;2023-01-30T05:06:16;5.30;99.90
15239;DHT22;7722;53.274;9.500;2023-01-30T05:08:46;5.30;99.90
15239;DHT22;7722;53.274;9.500;2023-01-30T05:11:13;5.30;99.90
15239;DHT22;7722;53.274;9.500;2023-01-30T05:13:40;5.20;99.90
15239;DHT22;7722;53.274;9.500;2023-01-30T05:16:08;5.10;99.90
15239;DHT22;7722;53.274;9.500;2023-01-30T05:18:37;5.10;99.90
15239;DHT22;7722;53.274;9.500;2023-01-30T05:21:05;5.10;99.90
15239;DHT22;7722;53.274;9.500;2023-01-30T05:23:32;5.00;99.90
15239;DHT22;7722;53.274;9.500;2023-01-30T05:26:00;5.00;99.90
15239;DHT22;7722;53.274;9.500;2023-01-30T05:28:27;5.00;99.90
15239;DHT22;7722;53.274;9.500;2023-01-30T05:30:59;5.00;99.90
15239;DHT22;7722;53.274;9.500;2023-01-30T05:33:26;4.90;99.90
15239;DHT22;7722;53.274;9.500;2023-01-30T05:35:54;4.80;99.90
15239;DHT22;7722;53.274;9.500;2023-01-30T05:38:21;4.80;99.90
15239;DHT22;7722;53.274;9.500;2023-01-30T05:40:57;4.80;99.90
15239;DHT22;7722;53.274;9.500;2023-01-30T05:43:24;4.70;99.90
15239;DHT22;7722;53.274;9.500;2023-01-30T05:45:51;4.60;99.90
15239;DHT22;7722;53.274;9.500;2023-01-30T05:48:19;4.60;99.90
15239;DHT22;7722;53.274;9.500;2023-01-30T05:50:46;4.60;99.90
15239;DHT22;7722;53.274;9.500;2023-01-30T05:53:14;4.50;99.90
15239;DHT22;7722;53.274;9.500;2023-01-30T05:55:41;4.60;99.90
15239;DHT22;7722;53.274;9.500;2023-01-30T05:58:09;4.60;99.90
15239;DHT22;7722;53.274;9.500;2023-01-30T06:00:36;4.60;99.90
15239;DHT22;7722;53.274;9.500;2023-01-30T06:03:03;4.50;99.90
15239;DHT22;7722;53.274;9.500;2023-01-30T06:05:30;4.40;99.90
15239;DHT22;7722;53.274;9.500;2023-01-30T06:07:57;4.40;99.90
15239;DHT22;7722;53.274;9.500;2023-01-30T06:10:26;4.40;99.90
15239;DHT22;7722;53.274;9.500;2023-01-30T06:12:53;4.30;99.90
15239;DHT22;7722;53.274;9.500;2023-01-30T06:15:20;4.30;99.90
15239;DHT22;7722;53.274;9.500;2023-01-30T06:17:47;4.20;99.90
15239;DHT22;7722;53.274;9.500;2023-01-30T06:20:14;4.10;99.90
15239;DHT22;7722;53.274;9.500;2023-01-30T06:22:42;4.20;99.90
15239;DHT22;7722;53.274;9.500;2023-01-30T06:25:09;4.20;99.90
15239;DHT22;7722;53.274;9.500;2023-01-30T06:27:38;4.20;99.90
15239;DHT22;7722;53.274;9.500;2023-01-30T06:30:05;4.10;99.90
15239;DHT22;7722;53.274;9.500;2023-01-30T06:32:33;4.10;99.90
15239;DHT22;7722;53.274;9.500;2023-01-30T06:35:00;4.00;99.90
15239;DHT22;7722;53.274;9.500;2023-01-30T06:37:28;4.00;99.90
15239;DHT22;7722;53.274;9.500;2023-01-30T06:39:55;4.10;99.90
15239;DHT22;7722;53.274;9.500;2023-01-30T06:42:22;4.10;99.90
15239;DHT22;7722;53.274;9.500;2023-01-30T06:44:50;4.10;99.90
15239;DHT22;7722;53.274;9.500;2023-01-30T06:47:17;4.30;99.90
15239;DHT22;7722;53.274;9.500;2023-01-30T06:49:44;4.40;99.90
15239;DHT22;7722;53.274;9.500;2023-01-30T06:52:13;4.40;99.90
15239;DHT22;7722;53.274;9.500;2023-01-30T06:54:41;4.40;99.90
15239;DHT22;7722;53.274;9.500;2023-01-30T06:57:08;4.40;99.90
15239;DHT22;7722;53.274;9.500;2023-01-30T06:59:35;4.30;99.90
15239;DHT22;7722;53.274;9.500;2023-01-30T07:02:03;4.30;99.90
15239;DHT22;7722;53.274;9.500;2023-01-30T07:04:30;4.30;99.90
15239;DHT22;7722;53.274;9.500;2023-01-30T07:06:57;4.40;99.90
15239;DHT22;7722;53.274;9.500;2023-01-30T07:09:24;4.30;99.90
15239;DHT22;7722;53.274;9.500;2023-01-30T07:11:52;4.20;99.90
15239;DHT22;7722;53.274;9.500;2023-01-30T07:14:19;4.20;99.90
15239;DHT22;7722;53.274;9.500;2023-01-30T07:16:46;4.20;99.90
15239;DHT22;7722;53.274;9.500;2023-01-30T07:19:14;4.30;99.90
15239;DHT22;7722;53.274;9.500;2023-01-30T07:21:41;4.30;99.90
15239;DHT22;7722;53.274;9.500;2023-01-30T07:24:08;4.30;99.90
15239;DHT22;7722;53.274;9.500;2023-01-30T07:26:35;4.30;99.90
15239;DHT22;7722;53.274;9.500;2023-01-30T07:29:02;4.40;99.90
15239;DHT22;7722;53.274;9.500;2023-01-30T07:31:29;4.30;99.90
15239;DHT22;7722;53.274;9.500;2023-01-30T07:33:56;4.20;99.90
15239;DHT22;7722;53.274;9.500;2023-01-30T07:36:25;4.20;99.90
15239;DHT22;7722;53.274;9.500;2023-01-30T07:38:52;4.20;99.90
15239;DHT22;7722;53.274;9.500;2023-01-30T07:41:19;4.30;99.90
15239;DHT22;7722;53.274;9.500;2023-01-30T07:43:47;4.40;99.90
15239;DHT22;7722;53.274;9.500;2023-01-30T07:46:15;4.50;99.90
15239;DHT22;7722;53.274;9.500;2023-01-30T07:48:43;4.50;99.90
15239;DHT22;7722;53.274;9.500;2023-01-30T07:51:10;4.60;99.90
15239;DHT22;7722;53.274;9.500;2023-01-30T07:53:39;4.60;99.90
15239;DHT22;7722;53.274;9.500;2023-01-30T07:56:06;4.60;99.90
15239;DHT22;7722;53.274;9.500;2023-01-30T07:58:34;4.50;99.90
15239;DHT22;7722;53.274;9.500;2023-01-30T08:01:01;4.50;99.90
15239;DHT22;7722;53.274;9.500;2023-01-30T08:03:28;4.60;99.90
15239;DHT22;7722;53.274;9.500;2023-01-30T08:05:55;4.70;99.90
15239;DHT22;7722;53.274;9.500;2023-01-30T08:08:23;4.70;99.90
15239;DHT22;7722;53.274;9.500;2023-01-30T08:10:51;4.60;99.90
15239;DHT22;7722;53.274;9.500;2023-01-30T08:13:18;4.60;99.90
15239;DHT22;7722;53.274;9.500;2023-01-30T08:15:45;4.70;99.90
15239;DHT22;7722;53.274;9.500;2023-01-30T08:18:12;4.70;99.90
15239;DHT22;7722;53.274;9.500;2023-01-30T08:20:39;4.70;99.90
15239;DHT22;7722;53.274;9.500;2023-01-30T08:23:07;4.80;99.90
15239;DHT22;7722;53.274;9.500;2023-01-30T08:25:35;4.80;99.90
15239;DHT22;7722;53.274;9.500;2023-01-30T08:28:04;4.90;99.90
15239;DHT22;7722;53.274;9.500;2023-01-30T08:30:31;5.00;99.90
15239;DHT22;7722;53.274;9.500;2023-01-30T08:32:58;5.10;99.90
15239;DHT22;7722;53.274;9.500;2023-01-30T08:35:25;5.10;99.90
15239;DHT22;7722;53.274;9.500;2023-01-30T08:37:52;5.10;99.90
15239;DHT22;7722;53.274;9.500;2023-01-30T08:40:19;5.10;99.90
15239;DHT22;7722;53.274;9.500;2023-01-30T08:42:46;5.20;99.90
15239;DHT22;7722;53.274;9.500;2023-01-30T08:45:15;5.10;99.90
15239;DHT22;7722;53.274;9.500;2023-01-30T08:47:42;5.20;99.90
15239;DHT22;7722;53.274;9.500;2023-01-30T08:50:10;5.20;99.90
15239;DHT22;7722;53.274;9.500;2023-01-30T08:52:37;5.30;99.90
15239;DHT22;7722;53.274;9.500;2023-01-30T08:55:04;5.30;99.90
15239;DHT22;7722;53.274;9.500;2023-01-30T08:57:31;5.30;99.90
15239;DHT22;7722;53.274;9.500;2023-01-30T08:59:58;5.10;99.90
15239;DHT22;7722;53.274;9.500;2023-01-30T09:02:27;5.20;99.90
15239;DHT22;7722;53.274;9.500;2023-01-30T09:04:54;5.30;99.90
15239;DHT22;7722;53.274;9.500;2023-01-30T09:07:21;5.30;99.90
15239;DHT22;7722;53.274;9.500;2023-01-30T09:09:48;5.30;99.90
15239;DHT22;7722;53.274;9.500;2023-01-30T09:12:15;5.30;99.90
15239;DHT22;7722;53.274;9.500;2023-01-30T09:14:42;5.20;99.90
15239;DHT22;7722;53.274;9.500;2023-01-30T09:17:09;5.40;99.90
15239;DHT22;7722;53.274;9.500;2023-01-30T09:19:37;5.40;99.90
15239;DHT22;7722;53.274;9.500;2023-01-30T09:22:05;5.50;99.90
15239;DHT22;7722;53.274;9.500;2023-01-30T09:24:33;5.50;99.90
15239;DHT22;7722;53.274;9.500;2023-01-30T09:27:00;5.60;99.90
15239;DHT22;7722;53.274;9.500;2023-01-30T09:29:27;5.50;99.90
15239;DHT22;7722;53.274;9.500;2023-01-30T09:31:55;5.40;99.90
15239;DHT22;7722;53.274;9.500;2023-01-30T09:34:23;5.40;99.90
15239;DHT22;7722;53.274;9.500;2023-01-30T09:36:54;5.40;99.90
15239;DHT22;7722;53.274;9.500;2023-01-30T09:39:21;5.50;99.90
15239;DHT22;7722;53.274;9.500;2023-01-30T09:41:59;5.50;99.90
15239;DHT22;7722;53.274;9.500;2023-01-30T09:44:59;5.60;99.90
15239;DHT22;7722;53.274;9.500;2023-01-30T09:47:34;5.90;99.90
15239;DHT22;7722;53.274;9.500;2023-01-30T09:50:21;5.90;99.90
15239;DHT22;7722;53.274;9.500;2023-01-30T09:52:56;5.90;99.90
15239;DHT22;7722;53.274;9.500;2023-01-30T09:55:26;6.00;99.90
15239;DHT22;7722;53.274;9.500;2023-01-30T09:57:56;6.10;99.90
15239;DHT22;7722;53.274;9.500;2023-01-30T10:00:29;6.10;99.90
15239;DHT22;7722;53.274;9.500;2023-01-30T10:03:03;6.10;99.90
15239;DHT22;7722;53.274;9.500;2023-01-30T10:05:37;6.20;99.90
15239;DHT22;7722;53.274;9.500;2023-01-30T10:11:01;6.20;99.90
15239;DHT22;7722;53.274;9.500;2023-01-30T10:13:43;6.20;99.90
15239;DHT22;7722;53.274;9.500;2023-01-30T10:16:18;6.20;99.90
15239;DHT22;7722;53.274;9.500;2023-01-30T10:19:22;6.20;99.90
15239;DHT22;7722;53.274;9.500;2023-01-30T10:21:58;6.20;99.90
15239;DHT22;7722;53.274;9.500;2023-01-30T10:24:42;6.20;99.90
15239;DHT22;7722;53.274;9.500;2023-01-30T10:27:12;6.40;99.90
15239;DHT22;7722;53.274;9.500;2023-01-30T10:29:43;6.40;99.90
15239;DHT22;7722;53.274;9.500;2023-01-30T10:32:14;6.50;99.90
15239;DHT22;7722;53.274;9.500;2023-01-30T10:34:44;6.50;99.90
15239;DHT22;7722;53.274;9.500;2023-01-30T10:37:16;6.50;99.90
15239;DHT22;7722;53.274;9.500;2023-01-30T10:39:50;6.40;99.90
15239;DHT22;7722;53.274;9.500;2023-01-30T10:42:25;6.30;99.90
15239;DHT22;7722;53.274;9.500;2023-01-30T10:44:57;6.40;99.90
15239;DHT22;7722;53.274;9.500;2023-01-30T10:47:41;6.50;99.90
15239;DHT22;7722;53.274;9.500;2023-01-30T10:50:14;6.60;99.90
15239;DHT22;7722;53.274;9.500;2023-01-30T10:52:48;6.70;99.90
15239;DHT22;7722;53.274;9.500;2023-01-30T10:55:27;6.70;99.90
15239;DHT22;7722;53.274;9.500;2023-01-30T10:58:00;6.70;99.90
15239;DHT22;7722;53.274;9.500;2023-01-30T11:00:32;6.60;99.90
15239;DHT22;7722;53.274;9.500;2023-01-30T11:03:10;6.50;99.90
15239;DHT22;7722;53.274;9.500;2023-01-30T11:05:47;6.50;99.90
15239;DHT22;7722;53.274;9.500;2023-01-30T11:08:19;6.50;99.90
15239;DHT22;7722;53.274;9.500;2023-01-30T11:10:48;6.30;99.90
15239;DHT22;7722;53.274;9.500;2023-01-30T11:13:17;6.10;99.90
15239;DHT22;7722;53.274;9.500;2023-01-30T11:15:47;5.80;99.90
15239;DHT22;7722;53.274;9.500;2023-01-30T11:18:16;5.30;99.90
15239;DHT22;7722;53.274;9.500;2023-01-30T11:20:45;4.80;99.90
15239;DHT22;7722;53.274;9.500;2023-01-30T11:23:24;4.60;99.90
15239;DHT22;7722;53.274;9.500;2023-01-30T11:25:54;4.60;99.90
15239;DHT22;7722;53.274;9.500;2023-01-30T11:28:23;4.60;99.90
15239;DHT22;7722;53.274;9.500;2023-01-30T11:30:53;4.50;99.90
15239;DHT22;7722;53.274;9.500;2023-01-30T11:33:30;4.50;99.90
15239;DHT22;7722;53.274;9.500;2023-01-30T11:35:59;4.50;99.90
15239;DHT22;7722;53.274;9.500;2023-01-30T11:38:28;4.50;99.90
15239;DHT22;7722;53.274;9.500;2023-01-30T11:41:09;4.50;99.90
15239;DHT22;7722;53.274;9.500;2023-01-30T11:43:39;4.60;99.90
15239;DHT22;7722;53.274;9.500;2023-01-30T11:46:07;4.90;99.90
15239;DHT22;7722;53.274;9.500;2023-01-30T11:48:47;5.10;99.90
15239;DHT22;7722;53.274;9.500;2023-01-30T11:51:15;5.30;99.90
15239;DHT22;7722;53.274;9.500;2023-01-30T11:53:45;5.60;99.90
15239;DHT22;7722;53.274;9.500;2023-01-30T11:56:19;5.80;99.90
15239;DHT22;7722;53.274;9.500;2023-01-30T11:58:54;5.90;99.90
15239;DHT22;7722;53.274;9.500;2023-01-30T12:01:26;6.10;99.90
15239;DHT22;7722;53.274;9.500;2023-01-30T12:03:55;5.90;99.90
15239;DHT22;7722;53.274;9.500;2023-01-30T12:06:27;5.70;99.90
15239;DHT22;7722;53.274;9.500;2023-01-30T12:08:55;5.80;99.90
15239;DHT22;7722;53.274;9.500;2023-01-30T12:11:26;5.70;99.90
15239;DHT22;7722;53.274;9.500;2023-01-30T12:13:57;5.80;99.90
15239;DHT22;7722;53.274;9.500;2023-01-30T12:16:41;5.80;99.90
15239;DHT22;7722;53.274;9.500;2023-01-30T12:19:22;6.20;99.90
15239;DHT22;7722;53.274;9.500;2023-01-30T12:22:04;6.20;99.90
15239;DHT22;7722;53.274;9.500;2023-01-30T12:24:40;6.20;99.90
15239;DHT22;7722;53.274;9.500;2023-01-30T12:27:15;6.30;99.90
15239;DHT22;7722;53.274;9.500;2023-01-30T12:29:56;6.50;99.90
15239;DHT22;7722;53.274;9.500;2023-01-30T12:32:27;6.60;99.90
15239;DHT22;7722;53.274;9.500;2023-01-30T12:34:54;6.50;99.90
15239;DHT22;7722;53.274;9.500;2023-01-30T12:37:34;6.60;99.90
15239;DHT22;7722;53.274;9.500;2023-01-30T12:40:13;6.60;99.90
15239;DHT22;7722;53.274;9.500;2023-01-30T12:43:03;6.60;99.90
15239;DHT22;7722;53.274;9.500;2023-01-30T12:45:34;6.60;99.90
15239;DHT22;7722;53.274;9.500;2023-01-30T12:48:45;6.70;99.90
15239;DHT22;7722;53.274;9.500;2023-01-30T12:51:28;6.70;99.90
15239;DHT22;7722;53.274;9.500;2023-01-30T12:54:09;6.60;99.90
15239;DHT22;7722;53.274;9.500;2023-01-30T12:56:52;6.50;99.90
15239;DHT22;7722;53.274;9.500;2023-01-30T12:59:31;6.30;99.90
15239;DHT22;7722;53.274;9.500;2023-01-30T13:05:18;4.90;99.90
15239;DHT22;7722;53.274;9.500;2023-01-30T13:07:56;4.80;99.90
15239;DHT22;7722;53.274;9.500;2023-01-30T13:10:33;5.00;99.90
15239;DHT22;7722;53.274;9.500;2023-01-30T13:13:09;5.10;99.90
15239;DHT22;7722;53.274;9.500;2023-01-30T13:15:43;5.20;99.90
15239;DHT22;7722;53.274;9.500;2023-01-30T13:18:13;5.30;99.90
15239;DHT22;7722;53.274;9.500;2023-01-30T13:20:51;5.30;99.90
15239;DHT22;7722;53.274;9.500;2023-01-30T13:23:25;5.40;99.90
15239;DHT22;7722;53.274;9.500;2023-01-30T13:25:57;5.50;99.90
15239;DHT22;7722;53.274;9.500;2023-01-30T13:28:30;5.60;99.90
15239;DHT22;7722;53.274;9.500;2023-01-30T13:31:01;5.70;99.90
15239;DHT22;7722;53.274;9.500;2023-01-30T13:33:34;5.70;99.90
15239;DHT22;7722;53.274;9.500;2023-01-30T13:36:09;5.80;99.90
15239;DHT22;7722;53.274;9.500;2023-01-30T13:38:40;5.90;99.90
15239;DHT22;7722;53.274;9.500;2023-01-30T13:41:11;5.90;99.90
15239;DHT22;7722;53.274;9.500;2023-01-30T13:43:44;5.90;99.90
15239;DHT22;7722;53.274;9.500;2023-01-30T13:46:17;6.00;99.90
15239;DHT22;7722;53.274;9.500;2023-01-30T13:48:56;6.10;99.90
15239;DHT22;7722;53.274;9.500;2023-01-30T13:51:38;6.30;99.90
15239;DHT22;7722;53.274;9.500;2023-01-30T13:54:17;6.30;99.90
15239;DHT22;7722;53.274;9.500;2023-01-30T13:56:48;6.30;99.90
15239;DHT22;7722;53.274;9.500;2023-01-30T13:59:24;6.30;99.90
15239;DHT22;7722;53.274;9.500;2023-01-30T14:02:17;6.30;99.90
15239;DHT22;7722;53.274;9.500;2023-01-30T14:04:49;6.20;99.90
15239;DHT22;7722;53.274;9.500;2023-01-30T14:07:25;6.20;99.90
15239;DHT22;7722;53.274;9.500;2023-01-30T14:10:18;6.10;99.90
15239;DHT22;7722;53.274;9.500;2023-01-30T14:12:47;6.00;99.90
15239;DHT22;7722;53.274;9.500;2023-01-30T14:15:22;5.90;99.90
15239;DHT22;7722;53.274;9.500;2023-01-30T14:18:01;5.80;99.90
15239;DHT22;7722;53.274;9.500;2023-01-30T14:20:31;5.90;99.90
15239;DHT22;7722;53.274;9.500;2023-01-30T14:23:00;5.90;99.90
15239;DHT22;7722;53.274;9.500;2023-01-30T14:25:44;5.90;99.90
15239;DHT22;7722;53.274;9.500;2023-01-30T14:31:49;5.90;99.90
15239;DHT22;7722;53.274;9.500;2023-01-30T14:34:45;6.00;99.90
15239;DHT22;7722;53.274;9.500;2023-01-30T14:40:33;6.20;99.90
15239;DHT22;7722;53.274;9.500;2023-01-30T14:43:26;6.20;99.90
15239;DHT22;7722;53.274;9.500;2023-01-30T14:45:55;6.20;99.90
15239;DHT22;7722;53.274;9.500;2023-01-30T14:48:27;6.20;99.90
15239;DHT22;7722;53.274;9.500;2023-01-30T14:51:29;6.20;99.90
15239;DHT22;7722;53.274;9.500;2023-01-30T14:54:01;6.10;99.90
15239;DHT22;7722;53.274;9.500;2023-01-30T14:56:38;6.10;99.90
15239;DHT22;7722;53.274;9.500;2023-01-30T14:59:08;6.20;99.90
15239;DHT22;7722;53.274;9.500;2023-01-30T15:01:56;6.20;99.90
15239;DHT22;7722;53.274;9.500;2023-01-30T15:04:26;6.20;99.90
15239;DHT22;7722;53.274;9.500;2023-01-30T15:06:56;6.20;99.90
15239;DHT22;7722;53.274;9.500;2023-01-30T15:09:28;6.20;99.90
15239;DHT22;7722;53.274;9.500;2023-01-30T15:12:14;6.30;99.90
15239;DHT22;7722;53.274;9.500;2023-01-30T15:14:53;6.30;99.90
15239;DHT22;7722;53.274;9.500;2023-01-30T15:17:30;6.30;99.90
15239;DHT22;7722;53.274;9.500;2023-01-30T15:20:11;6.30;99.90
15239;DHT22;7722;53.274;9.500;2023-01-30T15:25:52;6.10;99.90
15239;DHT22;7722;53.274;9.500;2023-01-30T15:28:33;6.10;99.90
15239;DHT22;7722;53.274;9.500;2023-01-30T15:31:08;6.00;99.90
15239;DHT22;7722;53.274;9.500;2023-01-30T15:33:44;6.00;99.90
15239;DHT22;7722;53.274;9.500;2023-01-30T15:36:24;5.90;99.90
15239;DHT22;7722;53.274;9.500;2023-01-30T15:39:01;5.90;99.90
15239;DHT22;7722;53.274;9.500;2023-01-30T15:41:30;6.00;99.90
15239;DHT22;7722;53.274;9.500;2023-01-30T15:46:56;6.00;99.90
15239;DHT22;7722;53.274;9.500;2023-01-30T15:49:43;6.00;99.90
15239;DHT22;7722;53.274;9.500;2023-01-30T15:52:14;6.00;99.90
15239;DHT22;7722;53.274;9.500;2023-01-30T15:54:48;6.00;99.90
15239;DHT22;7722;53.274;9.500;2023-01-30T15:57:20;5.90;99.90
15239;DHT22;7722;53.274;9.500;2023-01-30T15:59:47;5.90;99.90
15239;DHT22;7722;53.274;9.500;2023-01-30T16:02:20;5.90;99.90
15239;DHT22;7722;53.274;9.500;2023-01-30T16:05:02;5.80;99.90
15239;DHT22;7722;53.274;9.500;2023-01-30T16:07:30;5.80;99.90
15239;DHT22;7722;53.274;9.500;2023-01-30T16:10:00;5.80;99.90
15239;DHT22;7722;53.274;9.500;2023-01-30T16:12:29;5.80;99.90
15239;DHT22;7722;53.274;9.500;2023-01-30T16:14:57;5.80;99.90
15239;DHT22;7722;53.274;9.500;2023-01-30T16:17:25;5.80;99.90
15239;DHT22;7722;53.274;9.500;2023-01-30T16:19:53;5.70;99.90
15239;DHT22;7722;53.274;9.500;2023-01-30T16:22:21;5.80;99.90
15239;DHT22;7722;53.274;9.500;2023-01-30T16:24:50;5.80;99.90
15239;DHT22;7722;53.274;9.500;2023-01-30T16:27:24;5.80;99.90
15239;DHT22;7722;53.274;9.500;2023-01-30T16:29:56;5.80;99.90
15239;DHT22;7722;53.274;9.500;2023-01-30T16:32:26;5.80;99.90
15239;DHT22;7722;53.274;9.500;2023-01-30T16:35:15;5.70;99.90
15239;DHT22;7722;53.274;9.500;2023-01-30T16:37:43;5.60;99.90
15239;DHT22;7722;53.274;9.500;2023-01-30T16:40:14;5.50;99.90
15239;DHT22;7722;53.274;9.500;2023-01-30T16:42:54;5.50;99.90
15239;DHT22;7722;53.274;9.500;2023-01-30T16:45:50;5.50;99.90
15239;DHT22;7722;53.274;9.500;2023-01-30T16:48:30;5.60;99.90
15239;DHT22;7722;53.274;9.500;2023-01-30T16:51:20;5.70;99.90
15239;DHT22;7722;53.274;9.500;2023-01-30T16:53:51;5.70;99.90
15239;DHT22;7722;53.274;9.500;2023-01-30T16:56:21;5.70;99.90